Wetterdaten: Woche 04.03.13 - 10.03.13 (KW10)
Datum Zeit Temp. Aussen +5cm Feuchte Auss Luftdruck Regen Sonnenschein Regendauer UV Solar Windben
04.03.2013 00:00 1,1 C -1,7 C 86 % 1022,1 hPa 0,0 l/m 0,00 h 0,00 h 0,0 UV-I 0 W/m 1,0 km/h (0 Bft)
04.03.2013 01:00 0,6 C -1,2 C 89 % 1021,7 hPa 0,0 l/m 0,00 h 0,00 h 0,0 UV-I 0 W/m 2,3 km/h (1 Bft)
04.03.2013 02:00 0,2 C -1,6 C 91 % 1021,5 hPa 0,0 l/m 0,00 h 0,00 h 0,0 UV-I 0 W/m 4,4 km/h (1 Bft)
04.03.2013 03:00 -0,0 C -1,6 C 90 % 1021,2 hPa 0,0 l/m 0,00 h 0,00 h 0,0 UV-I 0 W/m 8,4 km/h (2 Bft)
04.03.2013 04:00 -0,2 C -1,6 C 90 % 1020,7 hPa 0,0 l/m 0,00 h 0,00 h 0,0 UV-I 0 W/m 10,2 km/h (2 Bft)
04.03.2013 05:00 -0,3 C -2,0 C 90 % 1020,2 hPa 0,0 l/m 0,00 h 0,00 h 0,0 UV-I 0 W/m 9,3 km/h (2 Bft)
04.03.2013 06:00 -0,5 C -2,1 C 91 % 1019,7 hPa 0,0 l/m 0,00 h 0,00 h 0,0 UV-I 0 W/m 9,0 km/h (2 Bft)
04.03.2013 07:00 -0,5 C -1,9 C 91 % 1019,5 hPa 0,0 l/m 0,00 h 0,00 h 0,0 UV-I 13 W/m 10,4 km/h (2 Bft)
04.03.2013 08:00 0,3 C -0,6 C 90 % 1019,6 hPa 0,0 l/m 0,07 h 0,00 h 0,0 UV-I 42 W/m 15,2 km/h (3 Bft)
04.03.2013 09:00 2,4 C 1,1 C 83 % 1019,5 hPa 0,0 l/m 0,97 h 0,00 h 0,0 UV-I 265 W/m 19,4 km/h (3 Bft)
04.03.2013 10:00 4,6 C 3,4 C 76 % 1019,1 hPa 0,0 l/m 1,00 h 0,00 h 0,6 UV-I 389 W/m 22,0 km/h (4 Bft)
04.03.2013 11:00 6,6 C 5,6 C 70 % 1018,5 hPa 0,0 l/m 1,00 h 0,00 h 1,0 UV-I 481 W/m 27,6 km/h (4 Bft)
04.03.2013 12:00 8,5 C 7,2 C 63 % 1018,0 hPa 0,0 l/m 0,97 h 0,00 h 1,3 UV-I 531 W/m 24,6 km/h (4 Bft)
04.03.2013 13:00 10,3 C 8,6 C 58 % 1017,0 hPa 0,0 l/m 1,00 h 0,00 h 1,2 UV-I 528 W/m 19,7 km/h (3 Bft)
04.03.2013 14:00 11,7 C 10,1 C 52 % 1016,3 hPa 0,0 l/m 1,00 h 0,00 h 0,9 UV-I 478 W/m 20,0 km/h (4 Bft)
04.03.2013 15:00 12,1 C 10,7 C 48 % 1015,4 hPa 0,0 l/m 0,97 h 0,00 h 0,5 UV-I 392 W/m 25,6 km/h (4 Bft)
04.03.2013 16:00 12,0 C 10,0 C 49 % 1014,5 hPa 0,0 l/m 0,80 h 0,00 h 0,0 UV-I 220 W/m 19,9 km/h (4 Bft)
04.03.2013 17:00 10,9 C 8,3 C 52 % 1013,9 hPa 0,0 l/m 0,00 h 0,00 h 0,0 UV-I 24 W/m 17,3 km/h (3 Bft)
04.03.2013 18:00 9,5 C 6,1 C 56 % 1014,1 hPa 0,0 l/m 0,00 h 0,00 h 0,0 UV-I 8 W/m 10,6 km/h (2 Bft)
04.03.2013 19:00 8,0 C 5,4 C 60 % 1014,2 hPa 0,0 l/m 0,00 h 0,00 h 0,0 UV-I 0 W/m 14,4 km/h (3 Bft)
04.03.2013 20:00 7,3 C 4,9 C 62 % 1014,0 hPa 0,0 l/m 0,00 h 0,00 h 0,0 UV-I 0 W/m 19,5 km/h (3 Bft)
04.03.2013 21:00 6,2 C 4,0 C 68 % 1013,7 hPa 0,0 l/m 0,00 h 0,00 h 0,0 UV-I 0 W/m 16,5 km/h (3 Bft)
04.03.2013 22:00 5,9 C 4,0 C 68 % 1013,4 hPa 0,0 l/m 0,00 h 0,00 h 0,0 UV-I 0 W/m 21,8 km/h (4 Bft)
04.03.2013 23:00 5,7 C 3,6 C 68 % 1012,9 hPa 0,0 l/m 0,00 h 0,00 h 0,0 UV-I 0 W/m 23,2 km/h (4 Bft)
05.03.2013 00:00 5,2 C 3,3 C 70 % 1012,7 hPa 0,0 l/m 0,00 h 0,00 h 0,0 UV-I 0 W/m 23,6 km/h (4 Bft)
05.03.2013 01:00 4,8 C 2,8 C 72 % 1012,6 hPa 0,0 l/m 0,00 h 0,00 h 0,0 UV-I 0 W/m 21,9 km/h (4 Bft)
05.03.2013 02:00 4,1 C 2,1 C 74 % 1012,5 hPa 0,0 l/m 0,00 h 0,00 h 0,0 UV-I 0 W/m 14,7 km/h (3 Bft)
05.03.2013 03:00 3,5 C 1,8 C 76 % 1012,0 hPa 0,0 l/m 0,00 h 0,00 h 0,0 UV-I 0 W/m 18,6 km/h (3 Bft)
05.03.2013 04:00 3,6 C 1,8 C 74 % 1011,6 hPa 0,0 l/m 0,00 h 0,00 h 0,0 UV-I 0 W/m 21,1 km/h (4 Bft)
05.03.2013 05:00 3,5 C 1,8 C 73 % 1011,3 hPa 0,0 l/m 0,00 h 0,00 h 0,0 UV-I 0 W/m 19,9 km/h (4 Bft)
05.03.2013 06:00 3,2 C 1,3 C 74 % 1011,1 hPa 0,0 l/m 0,00 h 0,00 h 0,0 UV-I 0 W/m 16,6 km/h (3 Bft)
05.03.2013 07:00 2,8 C 1,2 C 75 % 1011,1 hPa 0,0 l/m 0,00 h 0,00 h 0,0 UV-I 14 W/m 15,5 km/h (3 Bft)
05.03.2013 08:00 3,3 C 2,2 C 74 % 1011,2 hPa 0,0 l/m 0,10 h 0,00 h 0,0 UV-I 50 W/m 19,6 km/h (3 Bft)
05.03.2013 09:00 5,4 C 4,0 C 70 % 1011,0 hPa 0,0 l/m 0,97 h 0,00 h 0,0 UV-I 254 W/m 17,2 km/h (3 Bft)
05.03.2013 10:00 7,8 C 6,5 C 64 % 1010,7 hPa 0,0 l/m 1,00 h 0,00 h 0,6 UV-I 377 W/m 19,5 km/h (3 Bft)
05.03.2013 11:00 10,0 C 8,8 C 60 % 1010,3 hPa 0,0 l/m 1,00 h 0,00 h 0,9 UV-I 468 W/m 17,9 km/h (3 Bft)
05.03.2013 12:00 12,3 C 10,8 C 56 % 1009,7 hPa 0,0 l/m 0,97 h 0,00 h 1,2 UV-I 515 W/m 14,4 km/h (3 Bft)
05.03.2013 13:00 13,9 C 12,0 C 53 % 1008,9 hPa 0,0 l/m 1,00 h 0,00 h 1,2 UV-I 513 W/m 14,5 km/h (3 Bft)
05.03.2013 14:00 14,7 C 12,8 C 51 % 1008,2 hPa 0,0 l/m 1,00 h 0,00 h 0,8 UV-I 462 W/m 15,1 km/h (3 Bft)
05.03.2013 15:00 15,2 C 13,5 C 49 % 1007,6 hPa 0,0 l/m 0,97 h 0,00 h 0,5 UV-I 371 W/m 13,6 km/h (3 Bft)
05.03.2013 16:00 15,1 C 12,7 C 47 % 1007,0 hPa 0,0 l/m 0,63 h 0,00 h 0,0 UV-I 197 W/m 14,6 km/h (3 Bft)
05.03.2013 17:00 13,3 C 9,7 C 51 % 1006,6 hPa 0,0 l/m 0,00 h 0,00 h 0,0 UV-I 24 W/m 8,0 km/h (2 Bft)
05.03.2013 18:00 11,5 C 7,8 C 57 % 1006,2 hPa 0,0 l/m 0,00 h 0,00 h 0,0 UV-I 8 W/m 6,5 km/h (2 Bft)
05.03.2013 19:00 10,5 C 7,0 C 59 % 1006,1 hPa 0,0 l/m 0,00 h 0,00 h 0,0 UV-I 0 W/m 5,5 km/h (1 Bft)
05.03.2013 20:00 9,6 C 6,0 C 61 % 1006,2 hPa 0,0 l/m 0,00 h 0,00 h 0,0 UV-I 0 W/m 3,4 km/h (1 Bft)
05.03.2013 21:00 8,6 C 5,2 C 64 % 1006,2 hPa 0,0 l/m 0,00 h 0,00 h 0,0 UV-I 0 W/m 3,9 km/h (1 Bft)
05.03.2013 22:00 7,7 C 4,3 C 68 % 1006,3 hPa 0,0 l/m 0,00 h 0,00 h 0,0 UV-I 0 W/m 1,7 km/h (1 Bft)
05.03.2013 23:00 7,2 C 4,6 C 71 % 1006,1 hPa 0,0 l/m 0,00 h 0,00 h 0,0 UV-I 0 W/m 6,8 km/h (2 Bft)
06.03.2013 00:00 7,1 C 5,1 C 71 % 1005,9 hPa 0,0 l/m 0,00 h 0,00 h 0,0 UV-I 0 W/m 11,9 km/h (2 Bft)
06.03.2013 01:00 6,9 C 5,1 C 70 % 1005,5 hPa 0,0 l/m 0,00 h 0,00 h 0,0 UV-I 0 W/m 12,3 km/h (3 Bft)
06.03.2013 02:00 6,7 C 5,0 C 71 % 1005,1 hPa 0,0 l/m 0,00 h 0,00 h 0,0 UV-I 0 W/m 10,8 km/h (2 Bft)
06.03.2013 03:00 6,0 C 3,6 C 73 % 1004,7 hPa 0,0 l/m 0,00 h 0,00 h 0,0 UV-I 0 W/m 9,6 km/h (2 Bft)
06.03.2013 04:00 5,4 C 3,8 C 75 % 1004,3 hPa 0,0 l/m 0,00 h 0,00 h 0,0 UV-I 0 W/m 8,8 km/h (2 Bft)
06.03.2013 05:00 5,8 C 4,4 C 75 % 1004,0 hPa 0,0 l/m 0,00 h 0,00 h 0,0 UV-I 0 W/m 9,7 km/h (2 Bft)
06.03.2013 06:00 5,8 C 4,2 C 74 % 1003,7 hPa 0,0 l/m 0,00 h 0,00 h 0,0 UV-I 0 W/m 12,7 km/h (3 Bft)
06.03.2013 07:00 5,4 C 3,6 C 76 % 1003,8 hPa 0,0 l/m 0,00 h 0,00 h 0,0 UV-I 19 W/m 10,6 km/h (2 Bft)
06.03.2013 08:00 5,6 C 5,0 C 76 % 1003,8 hPa 0,0 l/m 0,13 h 0,00 h 0,0 UV-I 73 W/m 9,9 km/h (2 Bft)
06.03.2013 09:00 7,7 C 6,7 C 71 % 1003,7 hPa 0,0 l/m 0,27 h 0,00 h 0,0 UV-I 170 W/m 13,0 km/h (3 Bft)
06.03.2013 10:00 10,1 C 9,6 C 65 % 1003,4 hPa 0,0 l/m 0,53 h 0,00 h 0,8 UV-I 284 W/m 9,2 km/h (2 Bft)
06.03.2013 11:00 14,0 C 12,4 C 54 % 1002,8 hPa 0,0 l/m 1,00 h 0,00 h 1,1 UV-I 471 W/m 11,2 km/h (2 Bft)
06.03.2013 12:00 16,3 C 14,4 C 47 % 1002,5 hPa 0,0 l/m 0,93 h 0,00 h 1,3 UV-I 457 W/m 10,6 km/h (2 Bft)
06.03.2013 13:00 18,1 C 16,7 C 39 % 1001,8 hPa 0,0 l/m 0,97 h 0,00 h 1,3 UV-I 478 W/m 12,0 km/h (2 Bft)
06.03.2013 14:00 19,1 C 17,2 C 39 % 1001,2 hPa 0,0 l/m 0,80 h 0,00 h 0,8 UV-I 344 W/m 4,6 km/h (1 Bft)
06.03.2013 15:00 19,4 C 17,3 C 38 % 1000,7 hPa 0,0 l/m 0,77 h 0,00 h 0,5 UV-I 347 W/m 3,2 km/h (1 Bft)
06.03.2013 16:00 19,1 C 16,7 C 40 % 1000,3 hPa 0,0 l/m 0,53 h 0,00 h 0,0 UV-I 197 W/m 7,3 km/h (2 Bft)
06.03.2013 17:00 17,4 C 12,8 C 46 % 1000,1 hPa 0,0 l/m 0,03 h 0,00 h 0,0 UV-I 46 W/m 0,6 km/h (0 Bft)
06.03.2013 18:00 15,1 C 9,2 C 48 % 1000,2 hPa 0,0 l/m 0,00 h 0,00 h 0,0 UV-I 11 W/m 0,0 km/h (0 Bft)
06.03.2013 19:00 13,1 C 7,3 C 52 % 1000,6 hPa 0,0 l/m 0,00 h 0,00 h 0,0 UV-I 0 W/m 0,3 km/h (0 Bft)
06.03.2013 20:00 11,0 C 5,7 C 59 % 1000,4 hPa 0,0 l/m 0,00 h 0,00 h 0,0 UV-I 0 W/m 0,0 km/h (0 Bft)
06.03.2013 21:00 9,0 C 4,9 C 65 % 1000,2 hPa 0,0 l/m 0,00 h 0,00 h 0,0 UV-I 0 W/m 0,1 km/h (0 Bft)
06.03.2013 22:00 9,1 C 5,6 C 65 % 1000,3 hPa 0,0 l/m 0,00 h 0,00 h 0,0 UV-I 0 W/m 0,3 km/h (0 Bft)
06.03.2013 23:00 8,8 C 4,9 C 65 % 1000,1 hPa 0,0 l/m 0,00 h 0,00 h 0,0 UV-I 0 W/m 0,2 km/h (0 Bft)
07.03.2013 00:00 8,1 C 4,9 C 66 % 999,9 hPa 0,0 l/m 0,00 h 0,00 h 0,0 UV-I 0 W/m 0,0 km/h (0 Bft)
07.03.2013 01:00 7,7 C 5,3 C 67 % 999,7 hPa 0,0 l/m 0,00 h 0,00 h 0,0 UV-I 0 W/m 0,0 km/h (0 Bft)
07.03.2013 02:00 8,1 C 6,0 C 66 % 999,5 hPa 0,0 l/m 0,00 h 0,00 h 0,0 UV-I 0 W/m 0,3 km/h (0 Bft)
07.03.2013 03:00 8,2 C 5,7 C 66 % 999,1 hPa 0,0 l/m 0,00 h 0,00 h 0,0 UV-I 0 W/m 0,0 km/h (0 Bft)
07.03.2013 04:00 7,6 C 5,1 C 68 % 998,8 hPa 0,0 l/m 0,00 h 0,00 h 0,0 UV-I 0 W/m 0,0 km/h (0 Bft)
07.03.2013 05:00 7,0 C 4,6 C 71 % 998,8 hPa 0,0 l/m 0,00 h 0,00 h 0,0 UV-I 0 W/m 0,0 km/h (0 Bft)
07.03.2013 06:00 6,5 C 3,9 C 73 % 998,8 hPa 0,0 l/m 0,00 h 0,00 h 0,0 UV-I 0 W/m 0,0 km/h (0 Bft)
07.03.2013 07:00 6,0 C 4,3 C 76 % 998,9 hPa 0,0 l/m 0,00 h 0,00 h 0,0 UV-I 16 W/m 0,0 km/h (0 Bft)
07.03.2013 08:00 6,6 C 6,2 C 76 % 998,9 hPa 0,0 l/m 0,00 h 0,00 h 0,0 UV-I 63 W/m 0,0 km/h (0 Bft)
07.03.2013 09:00 8,1 C 7,8 C 72 % 999,1 hPa 0,0 l/m 0,00 h 0,03 h 0,0 UV-I 69 W/m 2,5 km/h (1 Bft)
07.03.2013 10:00 9,3 C 9,4 C 69 % 999,3 hPa 0,0 l/m 0,00 h 0,00 h 0,0 UV-I 136 W/m 8,9 km/h (2 Bft)
07.03.2013 11:00 10,5 C 10,3 C 71 % 999,4 hPa 0,0 l/m 0,00 h 0,03 h 0,0 UV-I 157 W/m 12,2 km/h (2 Bft)
07.03.2013 12:00 12,0 C 13,1 C 71 % 999,2 hPa 0,0 l/m 0,07 h 0,00 h 0,6 UV-I 254 W/m 8,4 km/h (2 Bft)
07.03.2013 13:00 13,2 C 13,4 C 66 % 998,8 hPa 0,0 l/m 0,00 h 0,00 h 0,0 UV-I 183 W/m 6,5 km/h (2 Bft)
07.03.2013 14:00 14,3 C 14,8 C 62 % 998,3 hPa 0,0 l/m 0,00 h 0,00 h 0,5 UV-I 205 W/m 8,1 km/h (2 Bft)
07.03.2013 15:00 14,5 C 13,4 C 62 % 998,0 hPa 0,0 l/m 0,00 h 0,00 h 0,0 UV-I 101 W/m 7,7 km/h (2 Bft)
07.03.2013 16:00 14,3 C 13,2 C 62 % 997,7 hPa 0,0 l/m 0,00 h 0,00 h 0,0 UV-I 95 W/m 4,6 km/h (1 Bft)
07.03.2013 17:00 14,1 C 11,8 C 63 % 997,6 hPa 0,0 l/m 0,00 h 0,00 h 0,0 UV-I 23 W/m 0,9 km/h (0 Bft)
07.03.2013 18:00 13,0 C 10,5 C 65 % 997,8 hPa 0,0 l/m 0,00 h 0,03 h 0,0 UV-I 0 W/m 0,4 km/h (0 Bft)
07.03.2013 19:00 12,2 C 9,5 C 69 % 998,2 hPa 0,0 l/m 0,00 h 0,30 h 0,0 UV-I 0 W/m 0,4 km/h (0 Bft)
07.03.2013 20:00 11,4 C 7,8 C 79 % 998,6 hPa 0,4 l/m 0,00 h 0,87 h 0,0 UV-I 0 W/m 0,0 km/h (0 Bft)
07.03.2013 21:00 10,2 C 7,5 C 89 % 998,5 hPa 0,4 l/m 0,00 h 0,80 h 0,0 UV-I 0 W/m 1,1 km/h (0 Bft)
07.03.2013 22:00 9,7 C 7,3 C 93 % 998,4 hPa 0,0 l/m 0,00 h 0,17 h 0,0 UV-I 0 W/m 0,1 km/h (0 Bft)
07.03.2013 23:00 9,6 C 7,9 C 96 % 998,3 hPa 0,2 l/m 0,00 h 0,13 h 0,0 UV-I 0 W/m 9,4 km/h (2 Bft)
08.03.2013 00:00 9,2 C 7,4 C 97 % 998,2 hPa 0,0 l/m 0,00 h 0,00 h 0,0 UV-I 0 W/m 8,5 km/h (2 Bft)
08.03.2013 01:00 9,0 C 7,3 C 97 % 998,2 hPa 0,0 l/m 0,00 h 0,00 h 0,0 UV-I 0 W/m 9,3 km/h (2 Bft)
08.03.2013 02:00 8,9 C 7,3 C 96 % 998,2 hPa 0,0 l/m 0,00 h 0,07 h 0,0 UV-I 0 W/m 10,8 km/h (2 Bft)
08.03.2013 03:00 9,1 C 7,3 C 96 % 998,0 hPa 0,0 l/m 0,00 h 0,00 h 0,0 UV-I 0 W/m 8,8 km/h (2 Bft)
08.03.2013 04:00 9,1 C 7,2 C 95 % 997,7 hPa 0,0 l/m 0,00 h 0,00 h 0,0 UV-I 0 W/m 5,4 km/h (1 Bft)
08.03.2013 05:00 9,0 C 7,0 C 94 % 997,7 hPa 0,0 l/m 0,00 h 0,00 h 0,0 UV-I 0 W/m 5,0 km/h (1 Bft)
08.03.2013 06:00 8,8 C 6,8 C 95 % 997,7 hPa 0,0 l/m 0,00 h 0,00 h 0,0 UV-I 0 W/m 4,0 km/h (1 Bft)
08.03.2013 07:00 8,6 C 6,9 C 96 % 997,7 hPa 0,0 l/m 0,00 h 0,00 h 0,0 UV-I 25 W/m 6,0 km/h (2 Bft)
08.03.2013 08:00 9,0 C 8,0 C 96 % 997,9 hPa 0,2 l/m 0,00 h 0,00 h 0,0 UV-I 73 W/m 9,4 km/h (2 Bft)
08.03.2013 09:00 10,1 C 9,7 C 93 % 998,0 hPa 0,0 l/m 0,07 h 0,00 h 0,0 UV-I 150 W/m 10,9 km/h (2 Bft)
08.03.2013 10:00 11,8 C 11,6 C 87 % 997,9 hPa 0,0 l/m 0,37 h 0,00 h 0,0 UV-I 239 W/m 17,3 km/h (3 Bft)
08.03.2013 11:00 12,7 C 12,5 C 84 % 998,0 hPa 0,0 l/m 0,00 h 0,00 h 0,0 UV-I 175 W/m 12,0 km/h (2 Bft)
08.03.2013 12:00 13,6 C 13,4 C 81 % 997,9 hPa 0,0 l/m 0,00 h 0,00 h 0,0 UV-I 163 W/m 7,1 km/h (2 Bft)
08.03.2013 13:00 14,7 C 14,5 C 77 % 997,6 hPa 0,0 l/m 0,27 h 0,00 h 0,9 UV-I 254 W/m 6,8 km/h (2 Bft)
08.03.2013 14:00 16,3 C 15,7 C 71 % 997,3 hPa 0,0 l/m 0,10 h 0,00 h 0,5 UV-I 210 W/m 8,5 km/h (2 Bft)
08.03.2013 15:00 17,1 C 16,2 C 68 % 997,0 hPa 0,0 l/m 0,43 h 0,00 h 0,0 UV-I 192 W/m 8,6 km/h (2 Bft)
08.03.2013 16:00 16,6 C 14,2 C 68 % 997,0 hPa 0,0 l/m 0,00 h 0,00 h 0,0 UV-I 26 W/m 7,8 km/h (2 Bft)
08.03.2013 17:00 15,8 C 12,7 C 74 % 997,1 hPa 0,0 l/m 0,00 h 0,00 h 0,0 UV-I 13 W/m 1,9 km/h (1 Bft)
08.03.2013 18:00 14,8 C 12,0 C 78 % 997,5 hPa 0,0 l/m 0,00 h 0,00 h 0,0 UV-I 6 W/m 0,8 km/h (0 Bft)
08.03.2013 19:00 13,9 C 10,7 C 84 % 998,2 hPa 0,2 l/m 0,00 h 0,60 h 0,0 UV-I 0 W/m 7,1 km/h (2 Bft)
08.03.2013 20:00 12,9 C 9,9 C 89 % 998,3 hPa 0,2 l/m 0,00 h 0,37 h 0,0 UV-I 0 W/m 0,3 km/h (0 Bft)
08.03.2013 21:00 12,2 C 9,6 C 92 % 998,3 hPa 0,2 l/m 0,00 h 0,53 h 0,0 UV-I 0 W/m 0,0 km/h (0 Bft)
08.03.2013 22:00 11,7 C 9,6 C 93 % 998,3 hPa 0,0 l/m 0,00 h 0,13 h 0,0 UV-I 0 W/m 6,8 km/h (2 Bft)
08.03.2013 23:00 11,4 C 9,2 C 94 % 998,2 hPa 0,0 l/m 0,00 h 0,17 h 0,0 UV-I 0 W/m 12,5 km/h (3 Bft)
09.03.2013 00:00 11,2 C 9,0 C 95 % 997,9 hPa 0,4 l/m 0,00 h 0,60 h 0,0 UV-I 0 W/m 9,8 km/h (2 Bft)
09.03.2013 01:00 10,8 C 9,0 C 97 % 997,8 hPa 1,0 l/m 0,00 h 1,00 h 0,0 UV-I 0 W/m 4,8 km/h (1 Bft)
09.03.2013 02:00 10,5 C 9,0 C 98 % 997,7 hPa 0,6 l/m 0,00 h 0,80 h 0,0 UV-I 0 W/m 6,9 km/h (2 Bft)
09.03.2013 03:00 10,4 C 9,0 C 99 % 997,3 hPa 0,0 l/m 0,00 h 0,00 h 0,0 UV-I 0 W/m 3,0 km/h (1 Bft)
09.03.2013 04:00 10,2 C 8,6 C 99 % 996,9 hPa 0,0 l/m 0,00 h 0,00 h 0,0 UV-I 0 W/m 5,2 km/h (1 Bft)
09.03.2013 05:00 9,9 C 8,3 C 99 % 996,7 hPa 0,0 l/m 0,00 h 0,00 h 0,0 UV-I 0 W/m 5,1 km/h (1 Bft)
09.03.2013 06:00 9,3 C 7,6 C 99 % 996,6 hPa 0,0 l/m 0,00 h 0,00 h 0,0 UV-I 0 W/m 5,1 km/h (1 Bft)
09.03.2013 07:00 8,6 C 7,0 C 98 % 996,8 hPa 0,4 l/m 0,00 h 0,40 h 0,0 UV-I 9 W/m 6,2 km/h (2 Bft)
09.03.2013 08:00 8,3 C 6,8 C 98 % 996,9 hPa 0,0 l/m 0,00 h 0,07 h 0,0 UV-I 12 W/m 6,7 km/h (2 Bft)
09.03.2013 09:00 8,0 C 6,8 C 98 % 997,4 hPa 0,8 l/m 0,00 h 0,80 h 0,0 UV-I 21 W/m 9,3 km/h (2 Bft)
09.03.2013 10:00 8,0 C 6,9 C 99 % 997,7 hPa 1,0 l/m 0,00 h 1,00 h 0,0 UV-I 32 W/m 9,4 km/h (2 Bft)
09.03.2013 11:00 8,4 C 7,4 C 99 % 998,0 hPa 1,0 l/m 0,00 h 1,00 h 0,0 UV-I 58 W/m 13,5 km/h (3 Bft)
09.03.2013 12:00 8,8 C 7,7 C 98 % 998,5 hPa 0,4 l/m 0,00 h 0,97 h 0,0 UV-I 84 W/m 17,1 km/h (3 Bft)
09.03.2013 13:00 8,7 C 7,3 C 98 % 998,8 hPa 1,2 l/m 0,00 h 1,00 h 0,0 UV-I 51 W/m 13,0 km/h (3 Bft)
09.03.2013 14:00 8,6 C 7,3 C 98 % 999,1 hPa 2,0 l/m 0,00 h 1,00 h 0,0 UV-I 56 W/m 7,4 km/h (2 Bft)
09.03.2013 15:00 8,4 C 7,3 C 98 % 999,1 hPa 0,8 l/m 0,00 h 0,97 h 0,0 UV-I 45 W/m 6,9 km/h (2 Bft)
09.03.2013 16:00 8,3 C 7,2 C 99 % 998,9 hPa 0,2 l/m 0,00 h 0,47 h 0,0 UV-I 24 W/m 9,4 km/h (2 Bft)
09.03.2013 17:00 8,1 C 6,7 C 99 % 999,1 hPa 0,2 l/m 0,00 h 0,03 h 0,0 UV-I 12 W/m 14,7 km/h (3 Bft)
09.03.2013 18:00 7,5 C 6,2 C 98 % 999,4 hPa 0,0 l/m 0,00 h 0,00 h 0,0 UV-I 0 W/m 12,1 km/h (2 Bft)
09.03.2013 19:00 7,2 C 5,8 C 98 % 999,7 hPa 0,0 l/m 0,00 h 0,00 h 0,0 UV-I 0 W/m 7,6 km/h (2 Bft)
09.03.2013 20:00 6,8 C 5,4 C 97 % 999,6 hPa 0,0 l/m 0,00 h 0,00 h 0,0 UV-I 0 W/m 9,8 km/h (2 Bft)
09.03.2013 21:00 6,7 C 5,3 C 98 % 999,7 hPa 0,0 l/m 0,00 h 0,00 h 0,0 UV-I 0 W/m 11,1 km/h (2 Bft)
09.03.2013 22:00 6,3 C 5,1 C 97 % 999,8 hPa 0,0 l/m 0,00 h 0,00 h 0,0 UV-I 0 W/m 12,2 km/h (2 Bft)
09.03.2013 23:00 5,9 C 4,7 C 97 % 999,6 hPa 0,0 l/m 0,00 h 0,00 h 0,0 UV-I 0 W/m 9,9 km/h (2 Bft)
10.03.2013 00:00 5,6 C 4,4 C 97 % 999,6 hPa 0,0 l/m 0,00 h 0,00 h 0,0 UV-I 0 W/m 8,9 km/h (2 Bft)
10.03.2013 01:00 4,8 C 3,5 C 98 % 999,8 hPa 0,0 l/m 0,00 h 0,00 h 0,0 UV-I 0 W/m 6,0 km/h (2 Bft)
10.03.2013 02:00 4,3 C 3,4 C 98 % 999,7 hPa 0,0 l/m 0,00 h 0,00 h 0,0 UV-I 0 W/m 6,4 km/h (2 Bft)
10.03.2013 03:00 4,1 C 2,9 C 98 % 999,3 hPa 0,0 l/m 0,00 h 0,00 h 0,0 UV-I 0 W/m 6,6 km/h (2 Bft)
10.03.2013 04:00 3,8 C 2,9 C 97 % 999,1 hPa 0,0 l/m 0,00 h 0,00 h 0,0 UV-I 0 W/m 3,5 km/h (1 Bft)
10.03.2013 05:00 3,6 C 2,3 C 97 % 998,9 hPa 0,0 l/m 0,00 h 0,00 h 0,0 UV-I 0 W/m 8,1 km/h (2 Bft)
10.03.2013 06:00 3,3 C 2,3 C 97 % 998,7 hPa 0,0 l/m 0,00 h 0,07 h 0,0 UV-I 0 W/m 7,3 km/h (2 Bft)
10.03.2013 07:00 3,1 C 1,9 C 97 % 998,7 hPa 0,2 l/m 0,00 h 0,13 h 0,0 UV-I 9 W/m 7,5 km/h (2 Bft)
10.03.2013 08:00 2,7 C 1,7 C 97 % 998,9 hPa 0,2 l/m 0,00 h 0,50 h 0,0 UV-I 30 W/m 5,3 km/h (1 Bft)
10.03.2013 09:00 2,1 C 1,4 C 97 % 999,1 hPa 0,2 l/m 0,00 h 0,90 h 0,0 UV-I 65 W/m 5,4 km/h (1 Bft)
10.03.2013 10:00 2,0 C 1,4 C 97 % 999,3 hPa 0,4 l/m 0,00 h 1,00 h 0,0 UV-I 84 W/m 6,5 km/h (2 Bft)
10.03.2013 11:00 1,7 C 1,1 C 98 % 999,9 hPa 0,4 l/m 0,00 h 0,97 h 0,0 UV-I 89 W/m 10,1 km/h (2 Bft)
10.03.2013 12:00 1,3 C 0,6 C 97 % 1000,4 hPa 0,0 l/m 0,00 h 0,07 h 0,0 UV-I 70 W/m 16,0 km/h (3 Bft)
10.03.2013 13:00 0,9 C -0,3 C 96 % 1000,7 hPa 0,0 l/m 0,00 h 0,10 h 0,0 UV-I 41 W/m 19,9 km/h (4 Bft)
10.03.2013 14:00 0,5 C -0,7 C 94 % 1000,9 hPa 0,0 l/m 0,00 h 0,07 h 0,0 UV-I 44 W/m 19,9 km/h (4 Bft)
10.03.2013 15:00 0,3 C -0,8 C 93 % 1001,5 hPa 0,0 l/m 0,00 h 0,03 h 0,0 UV-I 30 W/m 18,3 km/h (3 Bft)
10.03.2013 16:00 0,1 C -0,8 C 92 % 1002,0 hPa 0,0 l/m 0,00 h 0,00 h 0,0 UV-I 18 W/m 17,9 km/h (3 Bft)
10.03.2013 17:00 -0,1 C -1,0 C 91 % 1002,4 hPa 0,0 l/m 0,00 h 0,00 h 0,0 UV-I 8 W/m 16,8 km/h (3 Bft)
10.03.2013 18:00 -0,2 C -1,0 C 91 % 1002,8 hPa 0,0 l/m 0,00 h 0,00 h 0,0 UV-I 0 W/m 15,4 km/h (3 Bft)
10.03.2013 19:00 -0,3 C -1,0 C 90 % 1003,6 hPa 0,0 l/m 0,00 h 0,00 h 0,0 UV-I 0 W/m 13,1 km/h (3 Bft)
10.03.2013 20:00 -0,3 C -1,0 C 89 % 1003,9 hPa 0,0 l/m 0,00 h 0,00 h 0,0 UV-I 0 W/m 11,8 km/h (2 Bft)
10.03.2013 21:00 -0,5 C -1,6 C 88 % 1004,0 hPa 0,0 l/m 0,00 h 0,00 h 0,0 UV-I 0 W/m 11,6 km/h (2 Bft)
10.03.2013 22:00 -0,6 C -1,6 C 88 % 1004,4 hPa 0,0 l/m 0,00 h 0,00 h 0,0 UV-I 0 W/m 10,2 km/h (2 Bft)
10.03.2013 23:00 -0,8 C -1,6 C 87 % 1004,6 hPa 0,0 l/m 0,00 h 0,00 h 0,0 UV-I 0 W/m 8,0 km/h (2 Bft)
Min-Datum _ 10.03.13 04.03.13 06.03.13 09.03.13 - - - - - 04.03.13
_ Min-Zeit 23:38 00:14 13:32 06:14 - - - - - 00:00
Minimum _ -0,9 C -2,1 C 36 % 996,5 hPa - - - - - 0,0 km/h (0 Bft)
Max-Datum _ 06.03.13 06.03.13 08.03.13 04.03.13 09.03.13 04.03.13 07.03.13 06.03.13 06.03.13 04.03.13
_ Max-Zeit 15:48 15:54 03:08 00:00 14:02 08:56 09:16 12:36 12:44 12:30
Maximum _ 19,6 C 19,0 C 100 % 1022,3 hPa 2,0 l/m 0,03 h 0,03 h 1,6 UV-I 642 W/m 43,8 km/h
S-SO (6 Bft)
Durchschnitt _ 8,1 C 6,3 C 78 % 1003,6 hPa #13,2 l/m #22:40 h #18:10 h 0,9 UV-I 163 W/m 9,5 km/h (2 Bft)
© 2013 W. Hausmann